CTV437 WALL-WIII
Flight info
| Callsign | CTV437 |
|---|---|
| Flight time | 1h 49m |
| Altitude | 36000 |
| Route | AJAMA T14 AKSOX |
| Aircraft | A320/M-SDE3FGHIRWY/LB1 |
Departure
| Time | 2026-04-15 05:59 |
|---|---|
| Airport | Sultan Aji Muhammad Sulaiman Sepinggan International Airport (WALL) |
Arrival
| Time | 2026-04-15 07:48 |
|---|---|
| Airport | Soekarno-Hatta International Airport (WIII) |
| Time | Latitude | Longitude | Altitude | Speed | Heading |
|---|---|---|---|---|---|
| 2026-04-15 05:32 | -1.26312 | 116.89848 | 21 ft | 0 kts | 335° |
| 2026-04-15 05:50 | -1.26314 | 116.89849 | 21 ft | 3 kts | 335° |
| 2026-04-15 05:50 | -1.26364 | 116.89866 | 23 ft | 4 kts | 358° |
| 2026-04-15 05:51 | -1.26387 | 116.89861 | 24 ft | 4 kts | 51° |
| 2026-04-15 05:51 | -1.26391 | 116.89856 | 22 ft | 0 kts | 65° |
| 2026-04-15 05:53 | -1.26392 | 116.89856 | 22 ft | 0 kts | 65° |
| 2026-04-15 05:53 | -1.26391 | 116.89858 | 22 ft | 1 kts | 65° |
| 2026-04-15 05:53 | -1.26386 | 116.89868 | 23 ft | 3 kts | 66° |
| 2026-04-15 05:54 | -1.26372 | 116.89901 | 21 ft | 7 kts | 67° |
| 2026-04-15 05:54 | -1.26347 | 116.89961 | 21 ft | 11 kts | 68° |
| 2026-04-15 05:54 | -1.26312 | 116.90047 | 22 ft | 15 kts | 68° |
| 2026-04-15 05:54 | -1.26266 | 116.90153 | 21 ft | 18 kts | 67° |
| 2026-04-15 05:55 | -1.26220 | 116.90265 | 21 ft | 15 kts | 67° |
| 2026-04-15 05:55 | -1.26215 | 116.90343 | 21 ft | 13 kts | 116° |
| 2026-04-15 05:55 | -1.26268 | 116.90423 | 23 ft | 14 kts | 125° |
| 2026-04-15 05:55 | -1.26361 | 116.90468 | 22 ft | 17 kts | 189° |
| 2026-04-15 05:56 | -1.26412 | 116.90443 | 23 ft | 2 kts | 216° |
| 2026-04-15 05:56 | -1.26423 | 116.90427 | 22 ft | 3 kts | 238° |
| 2026-04-15 05:56 | -1.26426 | 116.90418 | 22 ft | 0 kts | 246° |
| 2026-04-15 05:58 | -1.26427 | 116.90417 | 22 ft | 3 kts | 246° |
| 2026-04-15 05:58 | -1.26534 | 116.90163 | 22 ft | 79 kts | 247° |
| 2026-04-15 05:58 | -1.26833 | 116.89453 | 22 ft | 139 kts | 246° |
| 2026-04-15 05:58 | -1.27265 | 116.88427 | 249 ft | 167 kts | 248° |
| 2026-04-15 05:59 | -1.27716 | 116.87379 | 1014 ft | 163 kts | 246° |
| 2026-04-15 05:59 | -1.28172 | 116.86310 | 1509 ft | 175 kts | 247° |
| 2026-04-15 05:59 | -1.28675 | 116.85116 | 1827 ft | 199 kts | 248° |
| 2026-04-15 05:59 | -1.29242 | 116.83768 | 2194 ft | 222 kts | 249° |
| 2026-04-15 06:00 | -1.29865 | 116.82286 | 2604 ft | 246 kts | 249° |
| 2026-04-15 06:00 | -1.30560 | 116.80631 | 3112 ft | 267 kts | 249° |
| 2026-04-15 06:00 | -1.31290 | 116.78898 | 3926 ft | 274 kts | 248° |
| 2026-04-15 06:00 | -1.32048 | 116.77111 | 4856 ft | 277 kts | 249° |
| 2026-04-15 06:01 | -1.32794 | 116.75354 | 5748 ft | 279 kts | 249° |
| 2026-04-15 06:01 | -1.33555 | 116.73557 | 6632 ft | 282 kts | 249° |
| 2026-04-15 06:01 | -1.34322 | 116.71743 | 7468 ft | 285 kts | 249° |
| 2026-04-15 06:01 | -1.34664 | 116.70936 | 7844 ft | 286 kts | 249° |
| 2026-04-15 06:02 | -1.35038 | 116.70052 | 8265 ft | 287 kts | 249° |
| 2026-04-15 06:02 | -1.35416 | 116.69162 | 8715 ft | 289 kts | 249° |
| 2026-04-15 06:02 | -1.35668 | 116.68567 | 9009 ft | 290 kts | 249° |
| 2026-04-15 06:02 | -1.36459 | 116.66697 | 9885 ft | 294 kts | 249° |
| 2026-04-15 06:03 | -1.37270 | 116.64777 | 10320 ft | 311 kts | 249° |
| 2026-04-15 06:03 | -1.38140 | 116.62714 | 10603 ft | 331 kts | 249° |
| 2026-04-15 06:03 | -1.39049 | 116.60569 | 11193 ft | 338 kts | 248° |
| 2026-04-15 06:03 | -1.39972 | 116.58393 | 11885 ft | 342 kts | 248° |
| 2026-04-15 06:04 | -1.40906 | 116.56194 | 12576 ft | 346 kts | 248° |
| 2026-04-15 06:04 | -1.41852 | 116.53962 | 12910 ft | 349 kts | 248° |
| 2026-04-15 06:04 | -1.42797 | 116.51734 | 12988 ft | 348 kts | 249° |
| 2026-04-15 06:04 | -1.43742 | 116.49507 | 12997 ft | 348 kts | 248° |
| 2026-04-15 06:05 | -1.44673 | 116.47308 | 12996 ft | 348 kts | 248° |
| 2026-04-15 06:05 | -1.45617 | 116.45086 | 12992 ft | 348 kts | 248° |
| 2026-04-15 06:05 | -1.46565 | 116.42849 | 13003 ft | 349 kts | 248° |
| 2026-04-15 06:05 | -1.47516 | 116.40581 | 13551 ft | 357 kts | 249° |
| 2026-04-15 06:06 | -1.48467 | 116.38288 | 14546 ft | 358 kts | 249° |
| 2026-04-15 06:06 | -1.49420 | 116.35978 | 15416 ft | 361 kts | 248° |
| 2026-04-15 06:06 | -1.50377 | 116.33653 | 16073 ft | 362 kts | 248° |
| 2026-04-15 06:06 | -1.51337 | 116.31314 | 16668 ft | 365 kts | 249° |
| 2026-04-15 06:07 | -1.52308 | 116.28950 | 16938 ft | 367 kts | 248° |
| 2026-04-15 06:07 | -1.52955 | 116.27383 | 16984 ft | 367 kts | 248° |
| 2026-04-15 06:07 | -1.53925 | 116.25025 | 16995 ft | 367 kts | 249° |
| 2026-04-15 06:07 | -1.55184 | 116.21894 | 16997 ft | 367 kts | 249° |
| 2026-04-15 06:08 | -1.56124 | 116.19520 | 17001 ft | 367 kts | 248° |
| 2026-04-15 06:08 | -1.57055 | 116.17151 | 16987 ft | 366 kts | 249° |
| 2026-04-15 06:08 | -1.57985 | 116.14783 | 16996 ft | 366 kts | 249° |
| 2026-04-15 06:08 | -1.58921 | 116.12413 | 16994 ft | 367 kts | 249° |
| 2026-04-15 06:09 | -1.59556 | 116.10813 | 16994 ft | 367 kts | 249° |
| 2026-04-15 06:09 | -1.60504 | 116.08438 | 16993 ft | 367 kts | 249° |
| 2026-04-15 06:09 | -1.61440 | 116.06097 | 16998 ft | 366 kts | 249° |
| 2026-04-15 06:09 | -1.62386 | 116.03733 | 17000 ft | 367 kts | 249° |
| 2026-04-15 06:10 | -1.63331 | 116.01367 | 16994 ft | 367 kts | 249° |
| 2026-04-15 06:10 | -1.64277 | 115.98995 | 16999 ft | 367 kts | 249° |
| 2026-04-15 06:10 | -1.65226 | 115.96611 | 17254 ft | 370 kts | 249° |
| 2026-04-15 06:10 | -1.66179 | 115.94215 | 17870 ft | 372 kts | 249° |
| 2026-04-15 06:11 | -1.67142 | 115.91797 | 18394 ft | 376 kts | 248° |
| 2026-04-15 06:11 | -1.68110 | 115.89363 | 18882 ft | 378 kts | 248° |
| 2026-04-15 06:11 | -1.69089 | 115.86904 | 19381 ft | 381 kts | 248° |
| 2026-04-15 06:11 | -1.70072 | 115.84433 | 19861 ft | 384 kts | 248° |
| 2026-04-15 06:12 | -1.71061 | 115.81939 | 20331 ft | 387 kts | 248° |
| 2026-04-15 06:12 | -1.72046 | 115.79461 | 20797 ft | 389 kts | 248° |
| 2026-04-15 06:12 | -1.73056 | 115.76924 | 21258 ft | 392 kts | 248° |
| 2026-04-15 06:12 | -1.74069 | 115.74385 | 21688 ft | 395 kts | 248° |
| 2026-04-15 06:13 | -1.75093 | 115.71815 | 22140 ft | 399 kts | 248° |
| 2026-04-15 06:13 | -1.76127 | 115.69222 | 22656 ft | 403 kts | 248° |
| 2026-04-15 06:13 | -1.77166 | 115.66614 | 23124 ft | 405 kts | 248° |
| 2026-04-15 06:13 | -1.78200 | 115.64015 | 23523 ft | 408 kts | 247° |
| 2026-04-15 06:14 | -1.79255 | 115.61361 | 23858 ft | 411 kts | 247° |
| 2026-04-15 06:14 | -1.80312 | 115.58696 | 24211 ft | 414 kts | 247° |
| 2026-04-15 06:14 | -1.81378 | 115.56014 | 24564 ft | 416 kts | 247° |
| 2026-04-15 06:14 | -1.82452 | 115.53321 | 24920 ft | 418 kts | 247° |
| 2026-04-15 06:15 | -1.83534 | 115.50606 | 25273 ft | 420 kts | 247° |
| 2026-04-15 06:15 | -1.84617 | 115.47881 | 25657 ft | 423 kts | 247° |
| 2026-04-15 06:15 | -1.85694 | 115.45177 | 26053 ft | 425 kts | 247° |
| 2026-04-15 06:15 | -1.86846 | 115.42447 | 26394 ft | 427 kts | 242° |
| 2026-04-15 06:16 | -1.88387 | 115.39913 | 26731 ft | 428 kts | 232° |
| 2026-04-15 06:16 | -1.90237 | 115.37574 | 27050 ft | 429 kts | 230° |
| 2026-04-15 06:16 | -1.92110 | 115.35236 | 27382 ft | 431 kts | 230° |
| 2026-04-15 06:16 | -1.93990 | 115.32891 | 27697 ft | 434 kts | 230° |
| 2026-04-15 06:17 | -1.95891 | 115.30520 | 28008 ft | 436 kts | 230° |
| 2026-04-15 06:17 | -1.97800 | 115.28141 | 28332 ft | 439 kts | 230° |
| 2026-04-15 06:17 | -1.99711 | 115.25752 | 28660 ft | 441 kts | 230° |
| 2026-04-15 06:17 | -2.01628 | 115.23350 | 28972 ft | 443 kts | 230° |
| 2026-04-15 06:18 | -2.03554 | 115.20938 | 29281 ft | 445 kts | 230° |
| 2026-04-15 06:18 | -2.05495 | 115.18509 | 29584 ft | 447 kts | 230° |
| 2026-04-15 06:18 | -2.07421 | 115.16102 | 29882 ft | 450 kts | 230° |
| 2026-04-15 06:18 | -2.09404 | 115.13622 | 30125 ft | 452 kts | 230° |
| 2026-04-15 06:19 | -2.11344 | 115.11191 | 30369 ft | 454 kts | 230° |
| 2026-04-15 06:19 | -2.13322 | 115.08714 | 30618 ft | 455 kts | 230° |
| 2026-04-15 06:19 | -2.15309 | 115.06229 | 30864 ft | 457 kts | 230° |
| 2026-04-15 06:19 | -2.17297 | 115.03746 | 31112 ft | 458 kts | 230° |
| 2026-04-15 06:20 | -2.19295 | 115.01251 | 31364 ft | 460 kts | 230° |
| 2026-04-15 06:20 | -2.21293 | 114.98752 | 31684 ft | 459 kts | 230° |
| 2026-04-15 06:20 | -2.23284 | 114.96260 | 32039 ft | 458 kts | 230° |
| 2026-04-15 06:20 | -2.25270 | 114.93772 | 32389 ft | 457 kts | 231° |
| 2026-04-15 06:21 | -2.27248 | 114.91293 | 32747 ft | 455 kts | 231° |
| 2026-04-15 06:21 | -2.29223 | 114.88824 | 33123 ft | 454 kts | 231° |
| 2026-04-15 06:21 | -2.31195 | 114.86360 | 33490 ft | 453 kts | 231° |
| 2026-04-15 06:21 | -2.33154 | 114.83906 | 33866 ft | 451 kts | 231° |
| 2026-04-15 06:22 | -2.35107 | 114.81456 | 34167 ft | 450 kts | 231° |
| 2026-04-15 06:22 | -2.37034 | 114.79041 | 34444 ft | 449 kts | 231° |
| 2026-04-15 06:22 | -2.38978 | 114.76603 | 34746 ft | 448 kts | 231° |
| 2026-04-15 06:22 | -2.40922 | 114.74166 | 35014 ft | 447 kts | 231° |
| 2026-04-15 06:23 | -2.42867 | 114.71732 | 35287 ft | 447 kts | 231° |
| 2026-04-15 06:23 | -2.44807 | 114.69304 | 35568 ft | 445 kts | 231° |
| 2026-04-15 06:23 | -2.46742 | 114.66884 | 35767 ft | 446 kts | 231° |
| 2026-04-15 06:24 | -2.50575 | 114.62086 | 35825 ft | 438 kts | 231° |
| 2026-04-15 06:24 | -2.54374 | 114.57319 | 35823 ft | 436 kts | 231° |
| 2026-04-15 06:25 | -2.58141 | 114.52605 | 35821 ft | 436 kts | 231° |
| 2026-04-15 06:25 | -2.61937 | 114.47860 | 35827 ft | 437 kts | 231° |
| 2026-04-15 06:26 | -2.65728 | 114.43109 | 35822 ft | 437 kts | 231° |
| 2026-04-15 06:26 | -2.69521 | 114.38358 | 35822 ft | 436 kts | 231° |
| 2026-04-15 06:27 | -2.73308 | 114.33610 | 35825 ft | 437 kts | 231° |
| 2026-04-15 06:27 | -2.77098 | 114.28850 | 35827 ft | 437 kts | 231° |
| 2026-04-15 06:28 | -2.80897 | 114.24089 | 35821 ft | 438 kts | 230° |
| 2026-04-15 06:28 | -2.84706 | 114.19321 | 35815 ft | 439 kts | 230° |
| 2026-04-15 06:29 | -2.88495 | 114.14572 | 35810 ft | 440 kts | 230° |
| 2026-04-15 06:29 | -2.92319 | 114.09780 | 35812 ft | 440 kts | 230° |
| 2026-04-15 06:30 | -2.96147 | 114.04987 | 35816 ft | 441 kts | 230° |
| 2026-04-15 06:30 | -2.99981 | 114.00179 | 35820 ft | 442 kts | 230° |
| 2026-04-15 06:31 | -3.03785 | 113.95404 | 35821 ft | 442 kts | 230° |
| 2026-04-15 06:31 | -3.07616 | 113.90591 | 35822 ft | 442 kts | 230° |
| 2026-04-15 06:32 | -3.11451 | 113.85777 | 35826 ft | 442 kts | 230° |
| 2026-04-15 06:32 | -3.15287 | 113.80968 | 35828 ft | 442 kts | 230° |
| 2026-04-15 06:33 | -3.19127 | 113.76160 | 35829 ft | 442 kts | 230° |
| 2026-04-15 06:33 | -3.22953 | 113.71345 | 35824 ft | 442 kts | 230° |
| 2026-04-15 06:34 | -3.26768 | 113.66546 | 35820 ft | 443 kts | 230° |
| 2026-04-15 06:34 | -3.30617 | 113.61724 | 35821 ft | 443 kts | 230° |
| 2026-04-15 06:35 | -3.34475 | 113.56892 | 35824 ft | 444 kts | 230° |
| 2026-04-15 06:35 | -3.38319 | 113.52051 | 35827 ft | 444 kts | 230° |
| 2026-04-15 06:36 | -3.42167 | 113.47213 | 35828 ft | 444 kts | 230° |
| 2026-04-15 06:36 | -3.46027 | 113.42379 | 35830 ft | 444 kts | 230° |
| 2026-04-15 06:37 | -3.49863 | 113.37566 | 35834 ft | 445 kts | 230° |
| 2026-04-15 06:37 | -3.53727 | 113.32704 | 35840 ft | 445 kts | 230° |
| 2026-04-15 06:38 | -3.57580 | 113.27854 | 35840 ft | 445 kts | 230° |
| 2026-04-15 06:38 | -3.61434 | 113.23007 | 35839 ft | 445 kts | 230° |
| 2026-04-15 06:39 | -3.65269 | 113.18187 | 35841 ft | 445 kts | 230° |
| 2026-04-15 06:39 | -3.69131 | 113.13337 | 35842 ft | 445 kts | 230° |
| 2026-04-15 06:40 | -3.72985 | 113.08486 | 35841 ft | 444 kts | 230° |
| 2026-04-15 06:40 | -3.76841 | 113.03630 | 35845 ft | 444 kts | 230° |
| 2026-04-15 06:41 | -3.80689 | 112.98786 | 35847 ft | 444 kts | 230° |
| 2026-04-15 06:41 | -3.84544 | 112.93944 | 35848 ft | 444 kts | 230° |
| 2026-04-15 06:42 | -3.88367 | 112.89138 | 35851 ft | 444 kts | 230° |
| 2026-04-15 06:42 | -3.92210 | 112.84291 | 35851 ft | 444 kts | 230° |
| 2026-04-15 06:43 | -3.99905 | 112.74628 | 35851 ft | 443 kts | 230° |
| 2026-04-15 06:44 | -4.03740 | 112.69805 | 35858 ft | 442 kts | 230° |
| 2026-04-15 06:44 | -4.07562 | 112.64986 | 35857 ft | 441 kts | 230° |
| 2026-04-15 06:45 | -4.11377 | 112.60167 | 35855 ft | 441 kts | 230° |
| 2026-04-15 06:45 | -4.15202 | 112.55365 | 35851 ft | 441 kts | 230° |
| 2026-04-15 06:46 | -4.18397 | 112.50169 | 35848 ft | 444 kts | 247° |
| 2026-04-15 06:46 | -4.20405 | 112.44315 | 35843 ft | 444 kts | 250° |
| 2026-04-15 06:47 | -4.22410 | 112.38460 | 35847 ft | 444 kts | 250° |
| 2026-04-15 06:47 | -4.24420 | 112.32600 | 35832 ft | 445 kts | 250° |
| 2026-04-15 06:48 | -4.26427 | 112.26727 | 35828 ft | 446 kts | 250° |
| 2026-04-15 06:48 | -4.28436 | 112.20841 | 35827 ft | 446 kts | 250° |
| 2026-04-15 06:49 | -4.30427 | 112.14987 | 35826 ft | 447 kts | 250° |
| 2026-04-15 06:49 | -4.32442 | 112.09084 | 35821 ft | 448 kts | 250° |
| 2026-04-15 06:50 | -4.35469 | 112.00203 | 35822 ft | 449 kts | 250° |
| 2026-04-15 06:50 | -4.37487 | 111.94264 | 35827 ft | 449 kts | 250° |
| 2026-04-15 06:51 | -4.39490 | 111.88368 | 35833 ft | 450 kts | 250° |
| 2026-04-15 06:51 | -4.41510 | 111.82428 | 35835 ft | 450 kts | 250° |
| 2026-04-15 06:52 | -4.43193 | 111.77494 | 35837 ft | 450 kts | 250° |
| 2026-04-15 06:52 | -4.45214 | 111.71557 | 35836 ft | 450 kts | 250° |
| 2026-04-15 06:53 | -4.47235 | 111.65611 | 35837 ft | 450 kts | 250° |
| 2026-04-15 06:53 | -4.49257 | 111.59662 | 35833 ft | 451 kts | 250° |
| 2026-04-15 06:54 | -4.51280 | 111.53716 | 35836 ft | 451 kts | 250° |
| 2026-04-15 06:54 | -4.53299 | 111.47797 | 35839 ft | 451 kts | 250° |
| 2026-04-15 06:55 | -4.55322 | 111.41847 | 35841 ft | 451 kts | 250° |
| 2026-04-15 06:55 | -4.57341 | 111.35888 | 35840 ft | 451 kts | 250° |
| 2026-04-15 06:56 | -4.59361 | 111.29935 | 35840 ft | 451 kts | 250° |
| 2026-04-15 06:56 | -4.61384 | 111.23979 | 35844 ft | 451 kts | 250° |
| 2026-04-15 06:57 | -4.63370 | 111.18012 | 35846 ft | 451 kts | 250° |
| 2026-04-15 06:57 | -4.65277 | 111.12023 | 35842 ft | 451 kts | 251° |
| 2026-04-15 06:58 | -4.67180 | 111.06037 | 35839 ft | 451 kts | 251° |
| 2026-04-15 06:58 | -4.69090 | 111.00089 | 35842 ft | 451 kts | 251° |
| 2026-04-15 06:59 | -4.71022 | 110.94101 | 35841 ft | 451 kts | 251° |
| 2026-04-15 06:59 | -4.72957 | 110.88111 | 35839 ft | 451 kts | 251° |
| 2026-04-15 07:00 | -4.74889 | 110.82124 | 35840 ft | 451 kts | 251° |
| 2026-04-15 07:00 | -4.76806 | 110.76132 | 35838 ft | 451 kts | 251° |
| 2026-04-15 07:01 | -4.78719 | 110.70167 | 35835 ft | 452 kts | 251° |
| 2026-04-15 07:01 | -4.80647 | 110.64168 | 35835 ft | 452 kts | 251° |
| 2026-04-15 07:02 | -4.82577 | 110.58165 | 35836 ft | 452 kts | 251° |
| 2026-04-15 07:02 | -4.84509 | 110.52160 | 35838 ft | 452 kts | 251° |
| 2026-04-15 07:03 | -4.86444 | 110.46155 | 35839 ft | 452 kts | 251° |
| 2026-04-15 07:03 | -4.88352 | 110.40166 | 35835 ft | 453 kts | 252° |
| 2026-04-15 07:04 | -4.90215 | 110.34116 | 35833 ft | 454 kts | 252° |
| 2026-04-15 07:04 | -4.92055 | 110.28059 | 35834 ft | 454 kts | 252° |
| 2026-04-15 07:05 | -4.93897 | 110.22005 | 35835 ft | 454 kts | 252° |
| 2026-04-15 07:05 | -4.95750 | 110.15945 | 35836 ft | 454 kts | 252° |
| 2026-04-15 07:06 | -4.97610 | 110.09891 | 35838 ft | 454 kts | 252° |
| 2026-04-15 07:06 | -4.99468 | 110.03830 | 35839 ft | 454 kts | 252° |
| 2026-04-15 07:07 | -5.01315 | 109.97766 | 35837 ft | 454 kts | 252° |
| 2026-04-15 07:07 | -5.03147 | 109.91749 | 35842 ft | 454 kts | 252° |
| 2026-04-15 07:08 | -5.05003 | 109.85702 | 35845 ft | 453 kts | 252° |
| 2026-04-15 07:08 | -5.06850 | 109.79657 | 35849 ft | 453 kts | 252° |
| 2026-04-15 07:09 | -5.08694 | 109.73625 | 35853 ft | 452 kts | 252° |
| 2026-04-15 07:09 | -5.10539 | 109.67589 | 35850 ft | 451 kts | 252° |
| 2026-04-15 07:10 | -5.12377 | 109.61567 | 35846 ft | 451 kts | 252° |
| 2026-04-15 07:10 | -5.14205 | 109.55578 | 35852 ft | 451 kts | 252° |
| 2026-04-15 07:11 | -5.16041 | 109.49585 | 35850 ft | 451 kts | 252° |
| 2026-04-15 07:11 | -5.17881 | 109.43532 | 35850 ft | 450 kts | 252° |
| 2026-04-15 07:12 | -5.19698 | 109.37561 | 35851 ft | 450 kts | 252° |
| 2026-04-15 07:12 | -5.21530 | 109.31558 | 35849 ft | 449 kts | 252° |
| 2026-04-15 07:13 | -5.23357 | 109.25560 | 35843 ft | 449 kts | 252° |
| 2026-04-15 07:13 | -5.25186 | 109.19570 | 35846 ft | 449 kts | 252° |
| 2026-04-15 07:14 | -5.27010 | 109.13575 | 35844 ft | 448 kts | 252° |
| 2026-04-15 07:14 | -5.28831 | 109.07589 | 35841 ft | 448 kts | 252° |
| 2026-04-15 07:15 | -5.30681 | 109.01609 | 35839 ft | 448 kts | 251° |
| 2026-04-15 07:15 | -5.32653 | 108.95677 | 35840 ft | 448 kts | 250° |
| 2026-04-15 07:16 | -5.34639 | 108.89791 | 35838 ft | 448 kts | 250° |
| 2026-04-15 07:16 | -5.36612 | 108.83850 | 35835 ft | 448 kts | 251° |
| 2026-04-15 07:17 | -5.38571 | 108.77910 | 35836 ft | 448 kts | 251° |
| 2026-04-15 07:17 | -5.40528 | 108.71970 | 35838 ft | 448 kts | 251° |
| 2026-04-15 07:18 | -5.42485 | 108.66027 | 35842 ft | 448 kts | 251° |
| 2026-04-15 07:18 | -5.44445 | 108.60091 | 35843 ft | 447 kts | 251° |
| 2026-04-15 07:19 | -5.46399 | 108.54158 | 35842 ft | 447 kts | 251° |
| 2026-04-15 07:19 | -5.48342 | 108.48263 | 35841 ft | 447 kts | 251° |
| 2026-04-15 07:20 | -5.50292 | 108.42340 | 35843 ft | 447 kts | 251° |
| 2026-04-15 07:20 | -5.52246 | 108.36415 | 35839 ft | 447 kts | 251° |
| 2026-04-15 07:21 | -5.54274 | 108.30520 | 35837 ft | 446 kts | 245° |
| 2026-04-15 07:21 | -5.55755 | 108.27795 | 35838 ft | 444 kts | 234° |
| 2026-04-15 07:21 | -5.57679 | 108.25381 | 35836 ft | 443 kts | 224° |
| 2026-04-15 07:22 | -5.62517 | 108.21601 | 35831 ft | 441 kts | 213° |
| 2026-04-15 07:22 | -5.67599 | 108.18134 | 35829 ft | 441 kts | 213° |
| 2026-04-15 07:23 | -5.72661 | 108.14656 | 35829 ft | 441 kts | 213° |
| 2026-04-15 07:23 | -5.77744 | 108.11168 | 35812 ft | 444 kts | 213° |
| 2026-04-15 07:24 | -5.82863 | 108.07664 | 35806 ft | 446 kts | 213° |
| 2026-04-15 07:24 | -5.88001 | 108.04151 | 35813 ft | 448 kts | 213° |
| 2026-04-15 07:25 | -5.90572 | 108.02387 | 35525 ft | 448 kts | 214° |
| 2026-04-15 07:25 | -5.92923 | 108.00306 | 34499 ft | 453 kts | 228° |
| 2026-04-15 07:25 | -5.94690 | 107.97676 | 33297 ft | 457 kts | 243° |
| 2026-04-15 07:25 | -5.95768 | 107.94684 | 32200 ft | 455 kts | 257° |
| 2026-04-15 07:26 | -5.96148 | 107.91541 | 31216 ft | 452 kts | 269° |
| 2026-04-15 07:26 | -5.96165 | 107.88401 | 30260 ft | 448 kts | 269° |
| 2026-04-15 07:26 | -5.96172 | 107.85286 | 29245 ft | 443 kts | 269° |
| 2026-04-15 07:26 | -5.96174 | 107.82216 | 28279 ft | 436 kts | 269° |
| 2026-04-15 07:27 | -5.96173 | 107.79229 | 27404 ft | 429 kts | 269° |
| 2026-04-15 07:27 | -5.96171 | 107.76282 | 26877 ft | 413 kts | 269° |
| 2026-04-15 07:27 | -5.96170 | 107.73439 | 26371 ft | 402 kts | 269° |
| 2026-04-15 07:27 | -5.96170 | 107.70651 | 25874 ft | 396 kts | 269° |
| 2026-04-15 07:28 | -5.96167 | 107.67888 | 25375 ft | 393 kts | 269° |
| 2026-04-15 07:28 | -5.96163 | 107.65149 | 24887 ft | 393 kts | 270° |
| 2026-04-15 07:28 | -5.96161 | 107.62402 | 24394 ft | 392 kts | 270° |
| 2026-04-15 07:28 | -5.96161 | 107.59668 | 23976 ft | 389 kts | 269° |
| 2026-04-15 07:29 | -5.96163 | 107.56957 | 23492 ft | 388 kts | 270° |
| 2026-04-15 07:29 | -5.96163 | 107.54264 | 23097 ft | 383 kts | 270° |
| 2026-04-15 07:29 | -5.96166 | 107.51631 | 22615 ft | 381 kts | 270° |
| 2026-04-15 07:29 | -5.96167 | 107.48978 | 22156 ft | 378 kts | 270° |
| 2026-04-15 07:30 | -5.96169 | 107.46344 | 21722 ft | 375 kts | 270° |
| 2026-04-15 07:30 | -5.96171 | 107.43730 | 21288 ft | 373 kts | 269° |
| 2026-04-15 07:30 | -5.96173 | 107.41127 | 20875 ft | 370 kts | 270° |
| 2026-04-15 07:30 | -5.96175 | 107.38551 | 20447 ft | 368 kts | 270° |
| 2026-04-15 07:31 | -5.96176 | 107.35985 | 20074 ft | 364 kts | 270° |
| 2026-04-15 07:31 | -5.96174 | 107.33442 | 19647 ft | 363 kts | 270° |
| 2026-04-15 07:31 | -5.96171 | 107.30919 | 19260 ft | 360 kts | 270° |
| 2026-04-15 07:31 | -5.96167 | 107.28409 | 18879 ft | 358 kts | 270° |
| 2026-04-15 07:32 | -5.96161 | 107.25917 | 18427 ft | 353 kts | 270° |
| 2026-04-15 07:32 | -5.96156 | 107.23450 | 17880 ft | 353 kts | 270° |
| 2026-04-15 07:32 | -5.96151 | 107.21004 | 17526 ft | 348 kts | 270° |
| 2026-04-15 07:32 | -5.96146 | 107.18604 | 17130 ft | 347 kts | 270° |
| 2026-04-15 07:33 | -5.96143 | 107.16195 | 16754 ft | 344 kts | 270° |
| 2026-04-15 07:33 | -5.96142 | 107.13790 | 16355 ft | 343 kts | 270° |
| 2026-04-15 07:33 | -5.96140 | 107.11401 | 16002 ft | 341 kts | 270° |
| 2026-04-15 07:33 | -5.96135 | 107.09030 | 15645 ft | 339 kts | 270° |
| 2026-04-15 07:34 | -5.96129 | 107.06664 | 15313 ft | 336 kts | 270° |
| 2026-04-15 07:34 | -5.96123 | 107.05114 | 15093 ft | 334 kts | 270° |
| 2026-04-15 07:34 | -5.96115 | 107.02781 | 14730 ft | 334 kts | 270° |
| 2026-04-15 07:34 | -5.96106 | 106.99676 | 14276 ft | 331 kts | 270° |
| 2026-04-15 07:35 | -5.96102 | 106.98146 | 14043 ft | 331 kts | 270° |
| 2026-04-15 07:35 | -5.96095 | 106.95844 | 13735 ft | 328 kts | 270° |
| 2026-04-15 07:35 | -5.96090 | 106.93559 | 13379 ft | 327 kts | 270° |
| 2026-04-15 07:35 | -5.96087 | 106.91285 | 13040 ft | 324 kts | 270° |
| 2026-04-15 07:36 | -5.96084 | 106.89028 | 12675 ft | 322 kts | 270° |
| 2026-04-15 07:36 | -5.96080 | 106.86783 | 12308 ft | 320 kts | 270° |
| 2026-04-15 07:36 | -5.96074 | 106.84581 | 12172 ft | 311 kts | 270° |
| 2026-04-15 07:36 | -5.96067 | 106.82431 | 11928 ft | 305 kts | 270° |
| 2026-04-15 07:37 | -5.96062 | 106.80310 | 11628 ft | 302 kts | 269° |
| 2026-04-15 07:37 | -5.96339 | 106.78251 | 11310 ft | 301 kts | 254° |
| 2026-04-15 07:37 | -5.97078 | 106.76292 | 10994 ft | 298 kts | 248° |
| 2026-04-15 07:37 | -5.97864 | 106.74367 | 10658 ft | 297 kts | 248° |
| 2026-04-15 07:38 | -5.98647 | 106.72443 | 10319 ft | 296 kts | 248° |
| 2026-04-15 07:38 | -5.99422 | 106.70533 | 9988 ft | 295 kts | 248° |
| 2026-04-15 07:38 | -6.00189 | 106.68629 | 9694 ft | 292 kts | 248° |
| 2026-04-15 07:38 | -6.00951 | 106.66746 | 9350 ft | 289 kts | 248° |
| 2026-04-15 07:39 | -6.01709 | 106.64878 | 8979 ft | 288 kts | 248° |
| 2026-04-15 07:39 | -6.02464 | 106.63019 | 8614 ft | 287 kts | 248° |
| 2026-04-15 07:39 | -6.03209 | 106.61181 | 8297 ft | 283 kts | 248° |
| 2026-04-15 07:39 | -6.03940 | 106.59378 | 8165 ft | 272 kts | 248° |
| 2026-04-15 07:40 | -6.04641 | 106.57649 | 7999 ft | 263 kts | 248° |
| 2026-04-15 07:40 | -6.05316 | 106.55975 | 7696 ft | 261 kts | 248° |
| 2026-04-15 07:40 | -6.05996 | 106.54291 | 7367 ft | 259 kts | 248° |
| 2026-04-15 07:40 | -6.06673 | 106.52613 | 7023 ft | 259 kts | 248° |
| 2026-04-15 07:41 | -6.07348 | 106.50940 | 6690 ft | 257 kts | 248° |
| 2026-04-15 07:41 | -6.08013 | 106.49287 | 6199 ft | 255 kts | 248° |
| 2026-04-15 07:41 | -6.08677 | 106.47639 | 5652 ft | 253 kts | 248° |
| 2026-04-15 07:41 | -6.09339 | 106.45999 | 5013 ft | 254 kts | 248° |
| 2026-04-15 07:42 | -6.10005 | 106.44348 | 4368 ft | 256 kts | 247° |
| 2026-04-15 07:42 | -6.10967 | 106.42834 | 3685 ft | 264 kts | 219° |
| 2026-04-15 07:42 | -6.12653 | 106.42094 | 3016 ft | 271 kts | 186° |
| 2026-04-15 07:42 | -6.14548 | 106.42140 | 2494 ft | 273 kts | 171° |
| 2026-04-15 07:43 | -6.16337 | 106.42659 | 2145 ft | 266 kts | 146° |
| 2026-04-15 07:43 | -6.17480 | 106.44010 | 1980 ft | 247 kts | 108° |
| 2026-04-15 07:43 | -6.17627 | 106.45623 | 1980 ft | 227 kts | 86° |
| 2026-04-15 07:43 | -6.17553 | 106.47158 | 1983 ft | 211 kts | 85° |
| 2026-04-15 07:44 | -6.17495 | 106.48594 | 1985 ft | 199 kts | 85° |
| 2026-04-15 07:44 | -6.17221 | 106.49933 | 1982 ft | 194 kts | 66° |
| 2026-04-15 07:44 | -6.16714 | 106.51157 | 1986 ft | 190 kts | 66° |
| 2026-04-15 07:44 | -6.16250 | 106.52304 | 1980 ft | 165 kts | 66° |
| 2026-04-15 07:45 | -6.15843 | 106.53319 | 1984 ft | 149 kts | 67° |
| 2026-04-15 07:45 | -6.15458 | 106.54280 | 1980 ft | 147 kts | 66° |
| 2026-04-15 07:45 | -6.15077 | 106.55230 | 1944 ft | 147 kts | 67° |
| 2026-04-15 07:45 | -6.14704 | 106.56166 | 1737 ft | 140 kts | 65° |
| 2026-04-15 07:46 | -6.14347 | 106.57062 | 1546 ft | 137 kts | 66° |
| 2026-04-15 07:46 | -6.13990 | 106.57956 | 1356 ft | 138 kts | 66° |
| 2026-04-15 07:46 | -6.13635 | 106.58846 | 1180 ft | 138 kts | 65° |
| 2026-04-15 07:46 | -6.13282 | 106.59731 | 1013 ft | 136 kts | 65° |
| 2026-04-15 07:47 | -6.12931 | 106.60609 | 846 ft | 135 kts | 65° |
| 2026-04-15 07:47 | -6.12580 | 106.61484 | 673 ft | 134 kts | 66° |
| 2026-04-15 07:47 | -6.12234 | 106.62350 | 498 ft | 133 kts | 63° |
| 2026-04-15 07:47 | -6.11892 | 106.63206 | 319 ft | 131 kts | 65° |
| 2026-04-15 07:48 | -6.11554 | 106.64039 | 175 ft | 130 kts | 63° |
| 2026-04-15 07:48 | -6.11209 | 106.64882 | 44 ft | 129 kts | 64° |
| 2026-04-15 07:48 | -6.10860 | 106.65712 | 40 ft | 122 kts | 64° |
| 2026-04-15 07:48 | -6.10653 | 106.66284 | 34 ft | 44 kts | 75° |
| 2026-04-15 07:49 | -6.10623 | 106.66464 | 33 ft | 24 kts | 94° |
| 2026-04-15 07:49 | -6.10652 | 106.66616 | 34 ft | 20 kts | 115° |
| 2026-04-15 07:49 | -6.10776 | 106.66664 | 36 ft | 20 kts | 206° |
| 2026-04-15 07:49 | -6.10844 | 106.66529 | 37 ft | 25 kts | 248° |
| 2026-04-15 07:50 | -6.10914 | 106.66343 | 37 ft | 32 kts | 250° |
| 2026-04-15 07:50 | -6.11004 | 106.66130 | 38 ft | 35 kts | 247° |
| 2026-04-15 07:50 | -6.11098 | 106.65891 | 38 ft | 33 kts | 249° |
| 2026-04-15 07:50 | -6.11190 | 106.65657 | 37 ft | 39 kts | 248° |
| 2026-04-15 07:51 | -6.11296 | 106.65394 | 36 ft | 42 kts | 248° |
| 2026-04-15 07:51 | -6.11408 | 106.65109 | 38 ft | 46 kts | 249° |
| 2026-04-15 07:51 | -6.11512 | 106.64852 | 36 ft | 35 kts | 249° |
| 2026-04-15 07:51 | -6.11603 | 106.64763 | 39 ft | 17 kts | 162° |
| 2026-04-15 07:52 | -6.11733 | 106.64784 | 41 ft | 22 kts | 206° |
| 2026-04-15 07:52 | -6.11858 | 106.64661 | 40 ft | 29 kts | 222° |
| 2026-04-15 07:52 | -6.11992 | 106.64625 | 38 ft | 13 kts | 225° |
| 2026-04-15 07:52 | -6.12018 | 106.64554 | 37 ft | 13 kts | 246° |
| 2026-04-15 07:53 | -6.12065 | 106.64446 | 38 ft | 20 kts | 246° |
| 2026-04-15 07:53 | -6.12153 | 106.64422 | 36 ft | 11 kts | 152° |
| 2026-04-15 07:53 | -6.12246 | 106.64454 | 37 ft | 18 kts | 161° |
| 2026-04-15 07:53 | -6.12380 | 106.64508 | 38 ft | 24 kts | 160° |
| 2026-04-15 07:54 | -6.12557 | 106.64579 | 38 ft | 30 kts | 157° |
| 2026-04-15 07:54 | -6.12770 | 106.64672 | 38 ft | 36 kts | 156° |
| 2026-04-15 07:54 | -6.13024 | 106.64763 | 38 ft | 40 kts | 162° |
| 2026-04-15 07:54 | -6.13138 | 106.64826 | 38 ft | 13 kts | 108° |
| 2026-04-15 07:55 | -6.13109 | 106.64928 | 38 ft | 18 kts | 69° |
| 2026-04-15 07:55 | -6.13116 | 106.65030 | 38 ft | 16 kts | 147° |
| 2026-04-15 07:55 | -6.13181 | 106.65101 | 37 ft | 2 kts | 77° |
| 2026-04-15 07:56 | -6.13170 | 106.65097 | 37 ft | 3 kts | 327° |
| 2026-04-15 07:56 | -6.13148 | 106.65060 | 38 ft | 7 kts | 333° |
| 2026-04-15 07:56 | -6.13134 | 106.65101 | 38 ft | 8 kts | 101° |
| 2026-04-15 07:56 | -6.13140 | 106.65121 | 37 ft | 3 kts | 104° |
| 2026-04-15 07:57 | -6.13142 | 106.65129 | 36 ft | 0 kts | 106° |
| 2026-04-15 07:57 | -6.13142 | 106.65130 | 36 ft | 0 kts | 105° |